createdAt,value
2024-05-09T00:02:32.587Z,7.10
2024-05-09T00:05:06.081Z,7.57
2024-05-09T00:07:36.886Z,7.18
2024-05-09T00:10:11.803Z,7.43
2024-05-09T00:12:50.739Z,7.85
2024-05-09T00:15:21.344Z,7.78
2024-05-09T00:17:52.471Z,7.60
2024-05-09T00:20:35.052Z,7.07
2024-05-09T00:23:11.607Z,7.65
2024-05-09T00:25:43.805Z,7.72
2024-05-09T00:28:17.717Z,8.02
2024-05-09T00:30:50.977Z,7.18
2024-05-09T00:33:21.943Z,7.53
2024-05-09T00:35:58.350Z,8.38
2024-05-09T00:38:33.426Z,7.85
2024-05-09T00:41:06.965Z,7.43
2024-05-09T00:43:37.681Z,7.05
2024-05-09T00:46:08.904Z,8.80
2024-05-09T00:48:40.168Z,7.53
2024-05-09T00:51:14.025Z,8.10
2024-05-09T00:53:52.681Z,8.20
2024-05-09T00:56:27.479Z,9.00
2024-05-09T00:59:03.575Z,9.35
2024-05-09T01:01:37.950Z,8.55
2024-05-09T01:04:09.179Z,8.68
2024-05-09T01:06:42.691Z,8.48
2024-05-09T01:09:13.425Z,7.75
2024-05-09T01:11:44.694Z,8.10
2024-05-09T01:14:17.961Z,8.43
2024-05-09T01:16:55.732Z,8.30
2024-05-09T01:19:32.976Z,7.95
2024-05-09T01:22:08.278Z,8.95
2024-05-09T01:24:41.685Z,8.20
2024-05-09T01:27:12.332Z,7.72
2024-05-09T01:29:42.914Z,7.35
2024-05-09T01:32:13.750Z,8.07
2024-05-09T01:34:44.478Z,8.38
2024-05-09T01:37:17.994Z,7.93
2024-05-09T01:39:52.244Z,7.93
2024-05-09T01:42:22.839Z,8.40
2024-05-09T01:44:53.576Z,8.10
2024-05-09T01:47:25.469Z,8.32
2024-05-09T01:49:57.779Z,8.13
2024-05-09T01:52:28.728Z,7.90
2024-05-09T01:55:06.502Z,8.23
2024-05-09T01:57:37.656Z,8.27
2024-05-09T02:00:10.594Z,7.83
2024-05-09T02:02:42.549Z,8.55
2024-05-09T02:05:14.383Z,8.10
2024-05-09T02:07:45.136Z,8.75
2024-05-09T02:10:26.196Z,7.75
2024-05-09T02:13:05.393Z,7.68
2024-05-09T02:15:39.040Z,9.00
2024-05-09T02:18:11.211Z,8.98
2024-05-09T02:20:44.125Z,9.00
2024-05-09T02:23:15.354Z,9.40
2024-05-09T02:25:49.934Z,8.90
2024-05-09T02:28:21.334Z,9.93
2024-05-09T02:30:54.740Z,10.00
2024-05-09T02:33:25.663Z,10.20
2024-05-09T02:35:56.471Z,9.88
2024-05-09T02:38:25.611Z,9.68
2024-05-09T02:40:58.974Z,9.52
2024-05-09T02:43:26.892Z,8.70
2024-05-09T02:45:57.564Z,8.80
2024-05-09T02:48:25.967Z,9.75
2024-05-09T02:50:57.048Z,8.93
2024-05-09T02:53:25.360Z,8.00
2024-05-09T02:55:58.690Z,8.55
2024-05-09T02:58:26.859Z,7.40
2024-05-09T03:00:57.551Z,7.55
2024-05-09T03:03:26.127Z,7.90
2024-05-09T03:05:56.946Z,8.00
2024-05-09T03:08:25.222Z,8.52
2024-05-09T03:10:58.668Z,8.02
2024-05-09T03:13:26.717Z,7.78
2024-05-09T03:15:57.327Z,7.80
2024-05-09T03:18:47.766Z,8.15
2024-05-09T03:21:31.651Z,8.48
2024-05-09T03:23:59.835Z,8.80
2024-05-09T03:26:35.934Z,8.05
2024-05-09T03:29:10.103Z,7.57
2024-05-09T03:31:42.126Z,8.30
2024-05-09T03:34:11.439Z,7.97
2024-05-09T03:36:45.944Z,8.60
2024-05-09T03:39:20.085Z,8.63
2024-05-09T03:41:55.253Z,8.85
2024-05-09T03:44:26.152Z,8.15
2024-05-09T03:46:54.361Z,8.63
2024-05-09T03:49:28.223Z,7.22
2024-05-09T03:51:58.606Z,7.43
2024-05-09T03:54:37.829Z,7.00
2024-05-09T03:57:12.308Z,7.28
2024-05-09T03:59:42.953Z,7.22
2024-05-09T04:02:13.989Z,7.28
2024-05-09T04:04:45.429Z,7.30
2024-05-09T04:07:29.559Z,6.93
2024-05-09T04:10:01.403Z,7.10
2024-05-09T04:12:32.081Z,7.30
2024-05-09T04:15:03.100Z,8.05
2024-05-09T04:17:34.383Z,6.78
2024-05-09T04:20:21.374Z,5.65
2024-05-09T04:23:00.092Z,6.65
2024-05-09T04:25:28.319Z,7.53
2024-05-09T04:28:02.809Z,7.35
2024-05-09T04:30:41.304Z,6.45
2024-05-09T04:33:15.347Z,4.95
2024-05-09T04:35:53.799Z,6.05
2024-05-09T04:38:27.315Z,6.60
2024-05-09T04:40:58.811Z,6.50
2024-05-09T04:43:33.718Z,6.45
2024-05-09T04:46:09.443Z,5.90
2024-05-09T04:48:43.389Z,6.22
2024-05-09T04:51:11.807Z,5.70
2024-05-09T04:53:42.653Z,5.90
2024-05-09T04:56:13.201Z,6.50
2024-05-09T04:58:49.414Z,6.13
2024-05-09T05:01:17.618Z,5.28
2024-05-09T05:03:57.729Z,5.85
2024-05-09T05:06:25.807Z,4.30
2024-05-09T05:09:00.358Z,5.53
2024-05-09T05:11:29.824Z,6.03
2024-05-09T05:14:03.300Z,5.55
2024-05-09T05:16:33.174Z,5.57
2024-05-09T05:19:05.851Z,5.88
2024-05-09T05:21:40.933Z,5.05
2024-05-09T05:24:13.939Z,5.10
2024-05-09T05:26:45.774Z,4.65
2024-05-09T05:29:20.953Z,5.50
2024-05-09T05:31:50.675Z,5.60
2024-05-09T05:34:25.067Z,5.43
2024-05-09T05:36:58.881Z,5.47
2024-05-09T05:39:32.888Z,4.72
2024-05-09T05:42:00.949Z,5.43
2024-05-09T05:44:34.234Z,5.18
2024-05-09T05:47:02.304Z,4.95
2024-05-09T05:49:33.062Z,5.07
2024-05-09T05:52:01.117Z,5.50
2024-05-09T05:54:31.929Z,5.00
2024-05-09T05:57:00.000Z,4.72
2024-05-09T05:59:30.710Z,5.35
2024-05-09T06:02:01.626Z,4.70
2024-05-09T06:04:32.319Z,4.30
2024-05-09T06:07:00.321Z,5.32
2024-05-09T06:09:31.082Z,5.28
2024-05-09T06:12:01.976Z,5.07
2024-05-09T06:14:33.563Z,4.82
2024-05-09T06:17:06.946Z,4.63
2024-05-09T06:23:49.019Z,4.55
2024-05-09T06:23:55.032Z,3.92
2024-05-09T06:26:17.128Z,4.40
2024-05-09T06:28:47.738Z,4.97
2024-05-09T06:31:15.910Z,4.50
2024-05-09T06:33:49.499Z,4.15
2024-05-09T06:36:17.590Z,3.75
2024-05-09T06:38:49.920Z,3.10
2024-05-09T06:41:18.059Z,3.88
2024-05-09T06:43:56.445Z,3.78
2024-05-09T06:49:04.506Z,3.67
2024-05-09T06:51:37.577Z,3.63
2024-05-09T06:54:11.190Z,4.03
2024-05-09T06:56:43.056Z,4.05
2024-05-09T06:59:16.818Z,3.75
2024-05-09T07:03:31.364Z,3.45
2024-05-09T07:11:18.168Z,3.47
2024-05-09T07:13:57.815Z,3.65
2024-05-09T07:16:34.101Z,3.47
2024-05-09T07:19:04.891Z,3.67
2024-05-09T07:21:44.204Z,3.08
2024-05-09T07:24:15.108Z,3.53
2024-05-09T07:26:58.852Z,3.40
2024-05-09T07:29:34.051Z,3.53
2024-05-09T07:32:06.885Z,3.33
2024-05-09T07:34:43.096Z,3.70
2024-05-09T07:37:17.832Z,3.50
2024-05-09T07:39:47.771Z,4.15
2024-05-09T07:42:23.882Z,3.50
2024-05-09T07:45:21.065Z,3.40
2024-05-09T07:53:38.493Z,4.03
2024-05-09T07:56:22.694Z,3.55
2024-05-09T07:59:04.013Z,3.25
2024-05-09T08:06:05.297Z,3.42
2024-05-09T08:08:33.323Z,3.70
2024-05-09T08:11:06.611Z,3.53
2024-05-09T08:13:35.001Z,3.40
2024-05-09T08:16:09.144Z,3.45
2024-05-09T08:18:37.502Z,4.00
2024-05-09T08:21:08.800Z,3.65
2024-05-09T08:23:36.820Z,3.58
2024-05-09T08:26:07.671Z,3.88
2024-05-09T08:28:49.748Z,3.40
2024-05-09T08:31:23.412Z,3.15
2024-05-09T08:33:51.839Z,3.20
2024-05-09T08:36:23.817Z,3.72
2024-05-09T08:39:03.344Z,3.50
2024-05-09T08:41:36.416Z,3.08
2024-05-09T08:44:18.447Z,3.28
2024-05-09T08:47:18.117Z,4.00
2024-05-09T08:49:49.528Z,3.65
2024-05-09T08:52:21.742Z,4.32
2024-05-09T08:54:54.875Z,4.05
2024-05-09T08:57:31.153Z,3.75
2024-05-09T09:00:08.039Z,3.60
2024-05-09T09:02:45.327Z,3.67
2024-05-09T09:05:21.792Z,3.83
2024-05-09T09:07:52.179Z,3.83
2024-05-09T09:10:53.289Z,3.75
2024-05-09T09:13:52.478Z,3.78
2024-05-09T09:16:45.410Z,3.25
2024-05-09T09:19:30.839Z,3.40
2024-05-09T09:22:02.647Z,3.78
2024-05-09T09:24:35.830Z,3.97
2024-05-09T09:27:08.251Z,3.38
2024-05-09T09:29:55.572Z,3.15
2024-05-09T09:32:38.054Z,3.00
2024-05-09T09:35:10.729Z,3.13
2024-05-09T09:37:53.019Z,3.35
2024-05-09T09:40:31.671Z,3.30
2024-05-09T09:43:14.268Z,3.10
2024-05-09T09:46:12.912Z,2.67
2024-05-09T09:48:46.233Z,3.28
2024-05-09T09:51:23.759Z,3.08
2024-05-09T09:53:56.397Z,3.00
2024-05-09T09:56:34.037Z,2.90
2024-05-09T09:59:31.798Z,2.78
2024-05-09T10:02:01.854Z,2.72
2024-05-09T10:04:36.053Z,2.13
2024-05-09T10:07:11.226Z,2.72
2024-05-09T10:09:45.056Z,3.10
2024-05-09T10:12:19.989Z,3.20
2024-05-09T10:15:00.959Z,3.00
2024-05-09T10:17:35.000Z,3.05
2024-05-09T10:20:18.234Z,3.30
2024-05-09T10:22:56.692Z,2.72
2024-05-09T10:25:31.119Z,3.45
2024-05-09T10:28:16.049Z,3.45
2024-05-09T10:30:50.359Z,3.38
2024-05-09T10:33:24.572Z,3.45
2024-05-09T10:35:56.540Z,3.63
2024-05-09T10:41:16.592Z,2.72
2024-05-09T10:43:51.541Z,3.15
2024-05-09T10:46:34.554Z,2.72
2024-05-09T10:49:19.335Z,2.80
2024-05-09T10:52:09.255Z,2.90
2024-05-09T10:54:48.011Z,2.90
2024-05-09T10:57:38.900Z,3.15
2024-05-09T11:00:27.176Z,2.70
2024-05-09T11:03:18.303Z,2.92
2024-05-09T11:05:52.048Z,3.00
2024-05-09T11:08:23.826Z,2.83
2024-05-09T11:11:12.791Z,2.65
2024-05-09T11:13:51.278Z,2.22
2024-05-09T11:16:22.955Z,2.45
2024-05-09T11:21:27.726Z,2.00
2024-05-09T11:23:55.973Z,2.10
2024-05-09T11:26:32.351Z,2.22
2024-05-09T11:29:02.541Z,2.38
2024-05-09T11:31:33.446Z,1.85
2024-05-09T11:34:05.526Z,2.37
2024-05-09T11:36:39.323Z,2.30
2024-05-09T11:39:07.302Z,2.47
2024-05-09T11:41:40.657Z,2.30
2024-05-09T11:44:08.586Z,2.45
2024-05-09T11:46:39.235Z,2.70
2024-05-09T11:49:07.432Z,2.45
2024-05-09T11:51:38.264Z,2.92
2024-05-09T11:54:06.183Z,2.30
2024-05-09T11:56:42.382Z,2.28
2024-05-09T11:59:10.852Z,3.03
2024-05-09T12:01:41.693Z,2.97
2024-05-09T12:04:10.130Z,2.53
2024-05-09T12:06:40.851Z,3.25
2024-05-09T12:09:08.815Z,2.80
2024-05-09T12:11:42.130Z,2.47
2024-05-09T12:14:12.940Z,2.28
2024-05-09T12:16:41.144Z,2.60
2024-05-09T12:19:11.899Z,2.17
2024-05-09T12:21:39.952Z,2.30
2024-05-09T12:24:10.480Z,2.30
2024-05-09T12:26:41.438Z,2.85
2024-05-09T12:29:12.056Z,2.10
2024-05-09T12:31:40.104Z,2.17
2024-05-09T12:34:11.373Z,1.70
2024-05-09T12:36:39.446Z,2.05
2024-05-09T12:39:10.111Z,2.42
2024-05-09T12:41:40.767Z,2.60
2024-05-09T12:44:11.339Z,2.20
2024-05-09T12:46:39.261Z,1.77
2024-05-09T12:49:10.255Z,2.00
2024-05-09T12:51:38.479Z,1.80
2024-05-09T12:54:09.184Z,2.22
2024-05-09T12:56:37.222Z,2.00
2024-05-09T12:59:13.171Z,2.42
2024-05-09T13:01:41.268Z,2.25
2024-05-09T13:04:12.104Z,2.03
2024-05-09T13:06:40.431Z,2.20
2024-05-09T13:09:12.030Z,2.67
2024-05-09T13:11:39.982Z,1.98
2024-05-09T13:14:13.383Z,2.00
2024-05-09T13:16:41.554Z,2.10
2024-05-09T13:19:12.363Z,1.60
2024-05-09T13:21:40.432Z,2.15
2024-05-09T13:24:11.011Z,2.15
2024-05-09T13:26:38.978Z,2.20
2024-05-09T13:29:10.929Z,2.00
2024-05-09T13:31:41.578Z,3.80
2024-05-09T13:34:12.273Z,4.18
2024-05-09T13:36:40.574Z,4.25
2024-05-09T13:39:11.297Z,5.55
2024-05-09T13:41:39.473Z,3.83
2024-05-09T13:44:10.019Z,3.78
2024-05-09T13:46:38.066Z,3.97
2024-05-09T13:49:18.015Z,3.42
2024-05-09T13:51:52.785Z,4.40
2024-05-09T13:54:26.456Z,3.95
2024-05-09T13:56:54.593Z,4.15
2024-05-09T13:59:26.453Z,4.13
2024-05-09T14:01:54.596Z,4.20
2024-05-09T14:04:29.685Z,4.10
2024-05-09T14:06:58.037Z,4.20
2024-05-09T14:09:28.930Z,4.18
2024-05-09T14:11:56.980Z,4.27
2024-05-09T14:14:27.705Z,4.32
2024-05-09T14:16:55.764Z,3.90
2024-05-09T14:19:29.156Z,4.53
2024-05-09T14:21:57.302Z,4.22
2024-05-09T14:24:28.066Z,3.97
2024-05-09T14:26:55.964Z,3.72
2024-05-09T14:29:26.557Z,3.42
2024-05-09T14:31:54.448Z,3.70
2024-05-09T14:34:30.902Z,4.22
2024-05-09T14:36:59.619Z,3.80
2024-05-09T14:39:30.309Z,3.72
2024-05-09T14:41:58.411Z,3.95
2024-05-09T14:44:29.037Z,3.40
2024-05-09T14:46:57.164Z,3.47
2024-05-09T14:49:31.308Z,3.72
2024-05-09T14:52:00.409Z,3.30
2024-05-09T14:54:31.182Z,3.35
2024-05-09T14:56:59.275Z,3.63
2024-05-09T14:59:30.037Z,3.60
2024-05-09T15:01:58.407Z,3.17
2024-05-09T15:04:32.021Z,3.22
2024-05-09T15:07:00.913Z,3.72
2024-05-09T15:09:41.909Z,3.30
2024-05-09T15:12:09.944Z,2.85
2024-05-09T15:14:40.547Z,3.78
2024-05-09T15:17:11.714Z,4.10
2024-05-09T15:19:45.339Z,3.58
2024-05-09T15:22:16.539Z,3.13
2024-05-09T15:24:48.525Z,3.50
2024-05-09T15:27:17.406Z,3.30
2024-05-09T15:29:50.132Z,3.22
2024-05-09T15:32:24.209Z,3.00
2024-05-09T15:34:57.531Z,3.20
2024-05-09T15:37:25.644Z,3.10
2024-05-09T15:39:59.057Z,3.33
2024-05-09T15:42:27.361Z,3.30
2024-05-09T15:44:57.942Z,3.13
2024-05-09T15:47:27.943Z,3.10
2024-05-09T15:50:01.354Z,3.05
2024-05-09T15:52:32.099Z,3.15
2024-05-09T15:54:59.987Z,2.92
2024-05-09T15:57:30.754Z,3.20
2024-05-09T15:59:58.853Z,3.13
2024-05-09T16:02:29.755Z,2.95
2024-05-09T16:05:00.650Z,2.60
2024-05-09T16:07:31.386Z,3.00
2024-05-09T16:09:59.506Z,2.90
2024-05-09T16:12:30.357Z,3.05
2024-05-09T16:14:58.400Z,3.10
2024-05-09T16:17:34.483Z,3.28
2024-05-09T16:20:09.384Z,3.47
2024-05-09T16:22:46.238Z,3.00
2024-05-09T16:25:14.479Z,3.33
2024-05-09T16:27:45.645Z,3.13
2024-05-09T16:30:21.036Z,3.28
2024-05-09T16:33:00.947Z,2.72
2024-05-09T16:35:31.707Z,2.58
2024-05-09T16:38:02.498Z,2.85
2024-05-09T16:40:37.637Z,4.05
2024-05-09T16:43:14.488Z,3.00
2024-05-09T16:45:45.029Z,2.50
2024-05-09T16:48:17.067Z,2.47
2024-05-09T16:50:47.749Z,3.10
2024-05-09T16:53:18.359Z,2.78
2024-05-09T16:55:46.256Z,3.63
2024-05-09T16:58:17.024Z,3.00
2024-05-09T17:00:45.328Z,3.08
2024-05-09T17:03:17.551Z,2.83
2024-05-09T17:05:50.897Z,2.72
2024-05-09T17:08:25.303Z,2.90
2024-05-09T17:10:56.022Z,3.38
2024-05-09T17:13:27.005Z,2.20
2024-05-09T17:16:00.784Z,2.72
2024-05-09T17:18:31.898Z,2.80
2024-05-09T17:21:02.662Z,3.78
2024-05-09T17:23:35.052Z,3.15
2024-05-09T17:26:03.189Z,3.33
2024-05-09T17:28:34.004Z,3.25
2024-05-09T17:31:02.094Z,3.40
2024-05-09T17:33:32.996Z,2.88
2024-05-09T17:36:03.820Z,3.45
2024-05-09T17:38:34.479Z,3.67
2024-05-09T17:41:02.529Z,3.40
2024-05-09T17:43:36.220Z,3.53
2024-05-09T17:46:04.611Z,3.20
2024-05-09T17:48:36.074Z,3.63
2024-05-09T17:51:07.127Z,2.75
2024-05-09T17:53:37.903Z,3.97
2024-05-09T17:56:11.847Z,3.50
2024-05-09T17:58:41.201Z,3.72
2024-05-09T18:01:12.178Z,3.75
2024-05-09T18:03:41.472Z,4.18
2024-05-09T18:06:16.821Z,3.60
2024-05-09T18:08:44.991Z,3.50
2024-05-09T18:11:18.480Z,4.15
2024-05-09T18:13:48.481Z,4.45
2024-05-09T18:16:19.951Z,3.72
2024-05-09T18:18:48.800Z,3.17
2024-05-09T18:21:25.858Z,3.97
2024-05-09T18:23:56.766Z,3.45
2024-05-09T18:26:31.724Z,3.50
2024-05-09T18:28:59.763Z,3.63
2024-05-09T18:31:33.428Z,4.05
2024-05-09T18:34:01.440Z,3.75
2024-05-09T18:36:35.015Z,3.65
2024-05-09T18:39:03.374Z,4.28
2024-05-09T18:41:33.942Z,4.10
2024-05-09T18:44:02.016Z,4.03
2024-05-09T18:46:32.935Z,3.90
2024-05-09T18:51:35.377Z,4.43
2024-05-09T18:54:03.562Z,4.45
2024-05-09T18:56:34.143Z,4.85
2024-05-09T18:59:02.069Z,4.43
2024-05-09T19:01:32.853Z,4.68
2024-05-09T19:04:01.043Z,5.13
2024-05-09T19:06:39.211Z,4.68
2024-05-09T19:09:07.099Z,4.70
2024-05-09T19:11:40.184Z,4.40
2024-05-09T19:14:12.487Z,4.68
2024-05-09T19:16:48.311Z,4.88
2024-05-09T19:19:16.627Z,5.80
2024-05-09T19:21:50.262Z,5.95
2024-05-09T19:24:18.338Z,5.88
2024-05-09T19:26:49.401Z,5.82
2024-05-09T19:29:17.400Z,5.68
2024-05-09T19:31:48.093Z,5.60
2024-05-09T19:34:17.582Z,5.72
2024-05-09T19:36:51.512Z,6.07
2024-05-09T19:39:22.774Z,7.00
2024-05-09T19:41:54.426Z,5.95
2024-05-09T19:44:22.802Z,6.00
2024-05-09T19:46:53.563Z,5.95
2024-05-09T19:49:21.683Z,6.20
2024-05-09T19:51:55.198Z,5.40
2024-05-09T19:54:23.273Z,6.07
2024-05-09T19:56:54.101Z,6.90
2024-05-09T19:59:22.033Z,6.45
2024-05-09T20:01:52.890Z,6.15
2024-05-09T20:04:21.894Z,5.93
2024-05-09T20:06:55.174Z,6.10
2024-05-09T20:09:23.769Z,5.88
2024-05-09T20:11:54.384Z,5.60
2024-05-09T20:14:23.700Z,6.78
2024-05-09T20:16:54.335Z,5.95
2024-05-09T20:19:22.508Z,6.78
2024-05-09T20:21:56.111Z,6.47
2024-05-09T20:24:26.744Z,6.43
2024-05-09T20:26:54.710Z,6.85
2024-05-09T20:29:25.639Z,6.13
2024-05-09T20:31:53.620Z,5.30
2024-05-09T20:34:30.293Z,6.35
2024-05-09T20:37:02.244Z,7.00
2024-05-09T20:39:34.776Z,8.45
2024-05-09T20:42:03.217Z,7.30
2024-05-09T20:44:36.836Z,6.40
2024-05-09T20:47:05.131Z,6.57
2024-05-09T20:49:35.795Z,6.60
2024-05-09T20:52:06.868Z,7.85
2024-05-09T20:54:37.549Z,7.05
2024-05-09T20:57:06.634Z,7.50
2024-05-09T20:59:37.252Z,7.20
2024-05-09T21:02:05.644Z,6.72
2024-05-09T21:04:36.506Z,8.50
2024-05-09T21:07:07.297Z,7.43
2024-05-09T21:09:37.903Z,7.15
2024-05-09T21:12:06.228Z,7.65
2024-05-09T21:14:36.817Z,6.75
2024-05-09T21:17:05.255Z,7.30
2024-05-09T21:19:35.969Z,6.20
2024-05-09T21:22:06.656Z,7.25
2024-05-09T21:24:37.592Z,7.90
2024-05-09T21:27:05.984Z,8.60
2024-05-09T21:29:36.488Z,8.02
2024-05-09T21:32:04.582Z,8.13
2024-05-09T21:34:37.964Z,8.57
2024-05-09T21:37:08.798Z,7.35
2024-05-09T21:39:39.641Z,7.50
2024-05-09T21:42:07.588Z,7.70
2024-05-09T21:44:38.158Z,7.90
2024-05-09T21:47:06.319Z,7.32
2024-05-09T21:49:36.984Z,7.95
2024-05-09T21:52:08.401Z,7.03
2024-05-09T21:54:39.085Z,8.15
2024-05-09T21:57:09.126Z,7.20
2024-05-09T21:59:40.512Z,7.35
2024-05-09T22:02:08.745Z,8.63
2024-05-09T22:04:39.422Z,8.02
2024-05-09T22:07:10.312Z,7.28
2024-05-09T22:09:46.541Z,8.38
2024-05-09T22:12:14.766Z,8.63
2024-05-09T22:14:47.944Z,7.40
2024-05-09T22:17:16.092Z,7.57
2024-05-09T22:19:48.659Z,6.80
2024-05-09T22:22:21.633Z,7.70
2024-05-09T22:24:52.439Z,8.07
2024-05-09T22:27:21.031Z,7.80
2024-05-09T22:29:52.765Z,7.10
2024-05-09T22:32:20.787Z,8.90
2024-05-09T22:34:54.239Z,7.80
2024-05-09T22:37:25.565Z,6.60
2024-05-09T22:39:56.356Z,7.63
2024-05-09T22:42:24.473Z,8.02
2024-05-09T22:44:55.049Z,6.82
2024-05-09T22:47:23.099Z,7.13
2024-05-09T22:49:53.823Z,7.43
2024-05-09T22:52:22.566Z,7.25
2024-05-09T22:54:55.869Z,6.80
2024-05-09T22:57:25.903Z,7.43
2024-05-09T22:59:56.642Z,7.80
2024-05-09T23:02:24.678Z,7.28
2024-05-09T23:04:55.775Z,7.50
2024-05-09T23:07:24.879Z,7.60
2024-05-09T23:09:58.248Z,7.43
2024-05-09T23:12:26.422Z,8.30
2024-05-09T23:14:56.990Z,6.85
2024-05-09T23:17:24.990Z,6.95
2024-05-09T23:19:55.791Z,7.10
2024-05-09T23:22:26.872Z,6.93
2024-05-09T23:25:00.287Z,7.25
2024-05-09T23:27:28.404Z,6.68
2024-05-09T23:29:59.182Z,6.50
2024-05-09T23:32:27.410Z,6.82
2024-05-09T23:34:58.267Z,6.00
2024-05-09T23:37:26.490Z,6.70
2024-05-09T23:40:00.152Z,5.97
2024-05-09T23:42:28.341Z,6.80
2024-05-09T23:44:58.958Z,7.18
2024-05-09T23:47:26.947Z,6.13
2024-05-09T23:49:57.624Z,6.22
2024-05-09T23:52:25.758Z,6.40
2024-05-09T23:54:56.666Z,6.65
2024-05-09T23:57:27.347Z,5.57
2024-05-09T23:59:58.262Z,6.35
